sensor_id;sensor_type;location;lat;lon;timestamp;pressure;altitude;pressure_sealevel;temperature;humidity
40384;BME280;26097;42.366;23.818;2022-08-01T00:01:58;94020.28;;;18.49;68.13
40384;BME280;26097;42.366;23.818;2022-08-01T00:04:59;94018.13;;;18.45;67.80
40384;BME280;26097;42.366;23.818;2022-08-01T00:08:00;94021.09;;;18.41;66.81
40384;BME280;26097;42.366;23.818;2022-08-01T00:11:00;94020.78;;;18.36;67.03
40384;BME280;26097;42.366;23.818;2022-08-01T00:14:01;94022.78;;;18.34;66.88
40384;BME280;26097;42.366;23.818;2022-08-01T00:17:01;94018.31;;;18.26;66.44
40384;BME280;26097;42.366;23.818;2022-08-01T00:20:04;94022.78;;;18.18;66.91
40384;BME280;26097;42.366;23.818;2022-08-01T00:23:05;94019.97;;;18.11;67.59
40384;BME280;26097;42.366;23.818;2022-08-01T00:26:05;94021.78;;;18.02;67.77
40384;BME280;26097;42.366;23.818;2022-08-01T00:29:06;94023.38;;;17.87;68.46
40384;BME280;26097;42.366;23.818;2022-08-01T00:32:06;94028.66;;;17.70;68.76
40384;BME280;26097;42.366;23.818;2022-08-01T00:35:07;94022.25;;;17.21;73.96
40384;BME280;26097;42.366;23.818;2022-08-01T00:38:07;94038.22;;;16.93;76.47
40384;BME280;26097;42.366;23.818;2022-08-01T00:41:08;94039.16;;;16.58;78.61
40384;BME280;26097;42.366;23.818;2022-08-01T00:44:08;94041.19;;;16.19;81.87
40384;BME280;26097;42.366;23.818;2022-08-01T00:47:09;94046.53;;;15.91;81.00
40384;BME280;26097;42.366;23.818;2022-08-01T00:50:10;94043.44;;;15.78;83.07
40384;BME280;26097;42.366;23.818;2022-08-01T00:53:11;94037.56;;;15.66;83.39
40384;BME280;26097;42.366;23.818;2022-08-01T00:56:11;94035.97;;;15.37;85.36
40384;BME280;26097;42.366;23.818;2022-08-01T00:59:13;94030.88;;;15.07;86.47
40384;BME280;26097;42.366;23.818;2022-08-01T01:02:14;94031.75;;;14.88;87.53
40384;BME280;26097;42.366;23.818;2022-08-01T01:05:14;94024.78;;;14.79;87.92
40384;BME280;26097;42.366;23.818;2022-08-01T01:08:20;94027.69;;;14.66;89.29
40384;BME280;26097;42.366;23.818;2022-08-01T01:15:07;94035.63;;;14.36;92.44
40384;BME280;26097;42.366;23.818;2022-08-01T01:18:16;94027.22;;;14.23;93.14
40384;BME280;26097;42.366;23.818;2022-08-01T01:24:31;94028.59;;;14.17;93.22
40384;BME280;26097;42.366;23.818;2022-08-01T01:27:45;94015.56;;;14.55;90.37
40384;BME280;26097;42.366;23.818;2022-08-01T01:30:53;94017.19;;;14.76;89.05
40384;BME280;26097;42.366;23.818;2022-08-01T01:33:57;94020.50;;;14.78;90.28
40384;BME280;26097;42.366;23.818;2022-08-01T01:37:01;94019.41;;;14.61;90.71
40384;BME280;26097;42.366;23.818;2022-08-01T01:40:03;94021.19;;;14.70;90.60
40384;BME280;26097;42.366;23.818;2022-08-01T01:43:07;94021.78;;;14.44;92.57
40384;BME280;26097;42.366;23.818;2022-08-01T01:46:12;94022.22;;;14.39;92.62
40384;BME280;26097;42.366;23.818;2022-08-01T01:49:16;94019.75;;;14.28;93.78
40384;BME280;26097;42.366;23.818;2022-08-01T01:52:19;94013.41;;;14.40;92.69
40384;BME280;26097;42.366;23.818;2022-08-01T01:55:21;94017.53;;;14.33;93.07
40384;BME280;26097;42.366;23.818;2022-08-01T01:58:24;94007.91;;;14.24;92.84
40384;BME280;26097;42.366;23.818;2022-08-01T02:01:28;94017.31;;;14.17;93.48
40384;BME280;26097;42.366;23.818;2022-08-01T02:04:30;94012.22;;;14.05;94.73
40384;BME280;26097;42.366;23.818;2022-08-01T02:07:32;94013.47;;;13.81;96.65
40384;BME280;26097;42.366;23.818;2022-08-01T02:10:34;94007.41;;;13.61;97.88
40384;BME280;26097;42.366;23.818;2022-08-01T02:13:37;94010.97;;;13.50;98.61
40384;BME280;26097;42.366;23.818;2022-08-01T02:16:41;94014.78;;;13.36;99.66
40384;BME280;26097;42.366;23.818;2022-08-01T02:19:43;94014.97;;;13.94;92.44
40384;BME280;26097;42.366;23.818;2022-08-01T02:22:47;94014.56;;;13.98;92.60
40384;BME280;26097;42.366;23.818;2022-08-01T02:25:51;94010.59;;;14.52;83.93
40384;BME280;26097;42.366;23.818;2022-08-01T02:28:57;93996.75;;;15.07;80.47
40384;BME280;26097;42.366;23.818;2022-08-01T02:31:59;93992.56;;;15.33;79.49
40384;BME280;26097;42.366;23.818;2022-08-01T02:35:02;93989.75;;;15.44;78.95
40384;BME280;26097;42.366;23.818;2022-08-01T02:38:04;93988.38;;;15.40;79.69
40384;BME280;26097;42.366;23.818;2022-08-01T02:41:07;93979.22;;;15.44;78.20
40384;BME280;26097;42.366;23.818;2022-08-01T02:44:11;93980.44;;;15.68;75.76
40384;BME280;26097;42.366;23.818;2022-08-01T02:47:17;93978.19;;;15.73;74.96
40384;BME280;26097;42.366;23.818;2022-08-01T02:50:20;93982.53;;;15.82;74.07
40384;BME280;26097;42.366;23.818;2022-08-01T02:53:23;93976.25;;;15.75;76.16
40384;BME280;26097;42.366;23.818;2022-08-01T02:56:25;93976.66;;;15.52;77.76
40384;BME280;26097;42.366;23.818;2022-08-01T02:59:37;93977.38;;;15.54;76.48
40384;BME280;26097;42.366;23.818;2022-08-01T03:02:38;93981.72;;;15.64;75.62
40384;BME280;26097;42.366;23.818;2022-08-01T03:05:41;93978.50;;;15.34;78.56
40384;BME280;26097;42.366;23.818;2022-08-01T03:08:43;93975.16;;;15.32;78.05
40384;BME280;26097;42.366;23.818;2022-08-01T03:11:46;93976.88;;;15.23;76.93
40384;BME280;26097;42.366;23.818;2022-08-01T03:14:50;93980.59;;;15.48;76.29
40384;BME280;26097;42.366;23.818;2022-08-01T03:17:52;93976.03;;;15.68;74.28
40384;BME280;26097;42.366;23.818;2022-08-01T03:20:55;93984.94;;;15.57;77.69
40384;BME280;26097;42.366;23.818;2022-08-01T03:23:58;93983.72;;;15.70;75.12
40384;BME280;26097;42.366;23.818;2022-08-01T03:26:59;93988.72;;;15.73;71.91
40384;BME280;26097;42.366;23.818;2022-08-01T03:30:02;93983.97;;;15.77;72.13
40384;BME280;26097;42.366;23.818;2022-08-01T03:33:04;93982.75;;;16.07;70.14
40384;BME280;26097;42.366;23.818;2022-08-01T03:36:09;93987.66;;;16.02;72.60
40384;BME280;26097;42.366;23.818;2022-08-01T03:39:11;93982.63;;;16.35;67.93
40384;BME280;26097;42.366;23.818;2022-08-01T03:42:17;93982.00;;;16.41;66.67
40384;BME280;26097;42.366;23.818;2022-08-01T03:45:21;93978.41;;;16.42;66.34
40384;BME280;26097;42.366;23.818;2022-08-01T03:48:28;93974.69;;;16.53;66.20
40384;BME280;26097;42.366;23.818;2022-08-01T03:51:30;93984.56;;;16.60;64.92
40384;BME280;26097;42.366;23.818;2022-08-01T03:54:35;93977.53;;;16.68;64.39
40384;BME280;26097;42.366;23.818;2022-08-01T03:57:36;93978.22;;;16.70;65.08
40384;BME280;26097;42.366;23.818;2022-08-01T04:00:37;93985.84;;;16.82;64.54
40384;BME280;26097;42.366;23.818;2022-08-01T04:03:39;93978.28;;;16.87;63.80
40384;BME280;26097;42.366;23.818;2022-08-01T04:06:40;93977.16;;;16.90;64.48
40384;BME280;26097;42.366;23.818;2022-08-01T04:09:41;93980.78;;;16.97;62.72
40384;BME280;26097;42.366;23.818;2022-08-01T04:12:42;93973.69;;;16.89;64.31
40384;BME280;26097;42.366;23.818;2022-08-01T04:15:43;93978.59;;;16.84;63.50
40384;BME280;26097;42.366;23.818;2022-08-01T04:18:43;93977.69;;;16.93;61.95
40384;BME280;26097;42.366;23.818;2022-08-01T04:21:43;93978.56;;;17.02;61.34
40384;BME280;26097;42.366;23.818;2022-08-01T04:24:46;93986.94;;;17.06;59.43
40384;BME280;26097;42.366;23.818;2022-08-01T04:27:51;93994.91;;;17.22;58.93
40384;BME280;26097;42.366;23.818;2022-08-01T04:30:55;93988.69;;;17.32;58.94
40384;BME280;26097;42.366;23.818;2022-08-01T04:33:57;93993.00;;;17.41;57.36
40384;BME280;26097;42.366;23.818;2022-08-01T04:36:59;93990.53;;;17.48;56.47
40384;BME280;26097;42.366;23.818;2022-08-01T04:40:00;93984.13;;;17.50;57.60
40384;BME280;26097;42.366;23.818;2022-08-01T04:43:02;93982.81;;;17.54;57.88
40384;BME280;26097;42.366;23.818;2022-08-01T04:46:03;93974.72;;;17.48;63.52
40384;BME280;26097;42.366;23.818;2022-08-01T04:49:06;93984.47;;;17.55;59.88
40384;BME280;26097;42.366;23.818;2022-08-01T04:52:07;93982.31;;;17.51;60.70
40384;BME280;26097;42.366;23.818;2022-08-01T04:55:08;93981.69;;;17.65;58.37
40384;BME280;26097;42.366;23.818;2022-08-01T04:58:10;93978.06;;;17.75;57.46
40384;BME280;26097;42.366;23.818;2022-08-01T05:01:11;93966.34;;;17.85;58.30
40384;BME280;26097;42.366;23.818;2022-08-01T05:04:11;93959.78;;;17.90;57.45
40384;BME280;26097;42.366;23.818;2022-08-01T05:07:12;93972.97;;;17.98;57.74
40384;BME280;26097;42.366;23.818;2022-08-01T05:10:13;93976.94;;;18.02;56.19
40384;BME280;26097;42.366;23.818;2022-08-01T05:13:13;93966.88;;;18.14;56.10
40384;BME280;26097;42.366;23.818;2022-08-01T05:16:14;93960.44;;;18.25;56.83
40384;BME280;26097;42.366;23.818;2022-08-01T05:19:14;93966.38;;;18.27;55.87
40384;BME280;26097;42.366;23.818;2022-08-01T05:22:14;93972.66;;;18.34;55.22
40384;BME280;26097;42.366;23.818;2022-08-01T05:25:15;93970.31;;;18.48;56.24
40384;BME280;26097;42.366;23.818;2022-08-01T05:28:15;93972.78;;;18.58;55.09
40384;BME280;26097;42.366;23.818;2022-08-01T05:31:16;93963.97;;;18.65;55.28
40384;BME280;26097;42.366;23.818;2022-08-01T05:34:17;93956.72;;;18.76;55.93
40384;BME280;26097;42.366;23.818;2022-08-01T05:37:17;93950.44;;;18.77;55.26
40384;BME280;26097;42.366;23.818;2022-08-01T05:40:18;93955.03;;;18.83;55.53
40384;BME280;26097;42.366;23.818;2022-08-01T05:43:18;93969.50;;;18.95;55.73
40384;BME280;26097;42.366;23.818;2022-08-01T05:46:18;93957.78;;;19.06;56.37
40384;BME280;26097;42.366;23.818;2022-08-01T05:49:19;93961.84;;;19.17;55.85
40384;BME280;26097;42.366;23.818;2022-08-01T05:52:19;93956.91;;;19.14;55.60
40384;BME280;26097;42.366;23.818;2022-08-01T05:55:20;93965.75;;;19.30;56.13
40384;BME280;26097;42.366;23.818;2022-08-01T05:58:20;93974.34;;;19.32;56.55
40384;BME280;26097;42.366;23.818;2022-08-01T06:01:21;93970.00;;;19.39;55.38
40384;BME280;26097;42.366;23.818;2022-08-01T06:04:21;93971.28;;;19.43;57.48
40384;BME280;26097;42.366;23.818;2022-08-01T06:07:22;93959.31;;;19.55;56.00
40384;BME280;26097;42.366;23.818;2022-08-01T06:10:22;93961.56;;;19.67;55.33
40384;BME280;26097;42.366;23.818;2022-08-01T06:13:23;93964.16;;;19.75;56.37
40384;BME280;26097;42.366;23.818;2022-08-01T06:16:23;93964.91;;;19.84;54.89
40384;BME280;26097;42.366;23.818;2022-08-01T06:19:24;93962.38;;;19.91;54.50
40384;BME280;26097;42.366;23.818;2022-08-01T06:22:26;93966.19;;;19.96;54.99
40384;BME280;26097;42.366;23.818;2022-08-01T06:25:27;93958.66;;;20.08;55.92
40384;BME280;26097;42.366;23.818;2022-08-01T06:28:27;93960.97;;;20.26;55.10
40384;BME280;26097;42.366;23.818;2022-08-01T06:31:28;93961.16;;;20.40;54.71
40384;BME280;26097;42.366;23.818;2022-08-01T06:34:28;93952.34;;;20.48;54.11
40384;BME280;26097;42.366;23.818;2022-08-01T06:37:32;93937.72;;;20.52;54.59
40384;BME280;26097;42.366;23.818;2022-08-01T06:40:32;93942.47;;;20.72;54.25
40384;BME280;26097;42.366;23.818;2022-08-01T06:43:33;93929.88;;;20.74;54.19
40384;BME280;26097;42.366;23.818;2022-08-01T06:46:34;93941.56;;;20.79;54.47
40384;BME280;26097;42.366;23.818;2022-08-01T06:49:34;93926.06;;;20.91;53.69
40384;BME280;26097;42.366;23.818;2022-08-01T06:52:36;93932.34;;;21.05;54.24
40384;BME280;26097;42.366;23.818;2022-08-01T06:55:36;93941.25;;;21.19;54.16
40384;BME280;26097;42.366;23.818;2022-08-01T06:58:37;93939.00;;;21.16;52.33
40384;BME280;26097;42.366;23.818;2022-08-01T07:01:37;93942.56;;;21.23;52.07
40384;BME280;26097;42.366;23.818;2022-08-01T07:04:38;93930.31;;;21.22;51.98
40384;BME280;26097;42.366;23.818;2022-08-01T07:07:38;93931.53;;;21.42;52.30
40384;BME280;26097;42.366;23.818;2022-08-01T07:10:38;93925.25;;;21.28;51.86
40384;BME280;26097;42.366;23.818;2022-08-01T07:13:39;93940.53;;;21.25;51.35
40384;BME280;26097;42.366;23.818;2022-08-01T07:16:39;93934.31;;;21.33;50.81
40384;BME280;26097;42.366;23.818;2022-08-01T07:19:40;93935.56;;;21.37;50.71
40384;BME280;26097;42.366;23.818;2022-08-01T07:22:40;93930.84;;;21.54;51.36
40384;BME280;26097;42.366;23.818;2022-08-01T07:25:41;93927.19;;;21.55;50.54
40384;BME280;26097;42.366;23.818;2022-08-01T07:28:41;93926.75;;;21.52;49.99
40384;BME280;26097;42.366;23.818;2022-08-01T07:31:42;93929.38;;;21.67;50.81
40384;BME280;26097;42.366;23.818;2022-08-01T07:34:42;93933.66;;;21.90;50.19
40384;BME280;26097;42.366;23.818;2022-08-01T07:37:43;93931.19;;;21.66;49.55
40384;BME280;26097;42.366;23.818;2022-08-01T07:40:44;93919.78;;;21.88;51.32
40384;BME280;26097;42.366;23.818;2022-08-01T07:43:44;93922.66;;;21.93;51.07
40384;BME280;26097;42.366;23.818;2022-08-01T07:46:44;93920.25;;;21.98;49.87
40384;BME280;26097;42.366;23.818;2022-08-01T07:49:45;93921.09;;;21.99;50.42
40384;BME280;26097;42.366;23.818;2022-08-01T07:52:45;93920.13;;;22.06;50.04
40384;BME280;26097;42.366;23.818;2022-08-01T07:55:46;93924.03;;;22.10;49.68
40384;BME280;26097;42.366;23.818;2022-08-01T07:58:46;93911.16;;;22.07;48.80
40384;BME280;26097;42.366;23.818;2022-08-01T08:01:49;93918.34;;;22.14;49.50
40384;BME280;26097;42.366;23.818;2022-08-01T08:04:50;93920.38;;;22.11;48.63
40384;BME280;26097;42.366;23.818;2022-08-01T08:07:51;93928.22;;;21.98;50.68
40384;BME280;26097;42.366;23.818;2022-08-01T08:10:51;93937.59;;;22.22;49.73
40384;BME280;26097;42.366;23.818;2022-08-01T08:13:52;93932.16;;;22.31;48.10
40384;BME280;26097;42.366;23.818;2022-08-01T08:16:52;93918.88;;;22.52;48.12
40384;BME280;26097;42.366;23.818;2022-08-01T08:19:53;93933.09;;;22.73;46.55
40384;BME280;26097;42.366;23.818;2022-08-01T08:22:54;93931.00;;;22.68;47.85
40384;BME280;26097;42.366;23.818;2022-08-01T08:25:55;93933.25;;;22.43;47.97
40384;BME280;26097;42.366;23.818;2022-08-01T08:28:55;93933.75;;;22.25;47.76
40384;BME280;26097;42.366;23.818;2022-08-01T08:31:56;93925.59;;;22.55;48.58
40384;BME280;26097;42.366;23.818;2022-08-01T08:34:57;93926.66;;;22.32;47.74
40384;BME280;26097;42.366;23.818;2022-08-01T08:37:58;93923.56;;;22.57;48.56
40384;BME280;26097;42.366;23.818;2022-08-01T08:40:59;93929.41;;;22.74;49.10
40384;BME280;26097;42.366;23.818;2022-08-01T08:44:04;93909.34;;;22.72;46.17
40384;BME280;26097;42.366;23.818;2022-08-01T08:47:05;93909.88;;;22.95;47.93
40384;BME280;26097;42.366;23.818;2022-08-01T08:50:07;93919.13;;;23.00;46.67
40384;BME280;26097;42.366;23.818;2022-08-01T08:53:09;93921.41;;;23.09;47.17
40384;BME280;26097;42.366;23.818;2022-08-01T08:56:11;93919.25;;;22.91;46.46
40384;BME280;26097;42.366;23.818;2022-08-01T08:59:13;93910.78;;;23.16;47.30
40384;BME280;26097;42.366;23.818;2022-08-01T09:02:14;93907.22;;;23.37;47.48
40384;BME280;26097;42.366;23.818;2022-08-01T09:05:14;93906.75;;;23.27;47.12
40384;BME280;26097;42.366;23.818;2022-08-01T09:08:15;93907.41;;;23.29;46.54
40384;BME280;26097;42.366;23.818;2022-08-01T09:11:15;93895.97;;;23.42;46.26
40384;BME280;26097;42.366;23.818;2022-08-01T09:14:18;93908.03;;;23.45;46.09
40384;BME280;26097;42.366;23.818;2022-08-01T09:17:40;93907.63;;;23.41;46.36
40384;BME280;26097;42.366;23.818;2022-08-01T09:20:41;93906.00;;;23.53;45.70
40384;BME280;26097;42.366;23.818;2022-08-01T09:26:45;93895.00;;;23.70;45.76
40384;BME280;26097;42.366;23.818;2022-08-01T09:29:45;93887.22;;;23.89;45.16
40384;BME280;26097;42.366;23.818;2022-08-01T09:32:57;93893.38;;;23.89;45.64
40384;BME280;26097;42.366;23.818;2022-08-01T09:35:58;93905.59;;;23.57;46.11
40384;BME280;26097;42.366;23.818;2022-08-01T09:39:12;93895.44;;;23.80;45.71
40384;BME280;26097;42.366;23.818;2022-08-01T09:42:26;93891.78;;;24.22;46.39
40384;BME280;26097;42.366;23.818;2022-08-01T09:45:31;93880.47;;;24.33;45.72
40384;BME280;26097;42.366;23.818;2022-08-01T09:48:32;93887.63;;;24.53;46.17
40384;BME280;26097;42.366;23.818;2022-08-01T09:51:35;93885.56;;;24.75;44.69
40384;BME280;26097;42.366;23.818;2022-08-01T09:54:35;93888.00;;;24.63;44.13
40384;BME280;26097;42.366;23.818;2022-08-01T09:57:36;93883.91;;;24.67;43.71
40384;BME280;26097;42.366;23.818;2022-08-01T10:00:37;93880.22;;;24.82;45.02
40384;BME280;26097;42.366;23.818;2022-08-01T10:03:38;93887.00;;;24.44;46.01
40384;BME280;26097;42.366;23.818;2022-08-01T10:06:40;93884.50;;;24.90;46.51
40384;BME280;26097;42.366;23.818;2022-08-01T10:09:43;93884.63;;;25.08;44.49
40384;BME280;26097;42.366;23.818;2022-08-01T10:12:44;93882.63;;;24.90;45.42
40384;BME280;26097;42.366;23.818;2022-08-01T10:15:45;93885.97;;;24.65;45.36
40384;BME280;26097;42.366;23.818;2022-08-01T10:18:46;93883.06;;;24.80;45.25
40384;BME280;26097;42.366;23.818;2022-08-01T10:21:48;93889.84;;;24.76;44.88
40384;BME280;26097;42.366;23.818;2022-08-01T10:24:54;93863.44;;;24.55;45.64
40384;BME280;26097;42.366;23.818;2022-08-01T10:27:56;93873.13;;;24.15;46.34
40384;BME280;26097;42.366;23.818;2022-08-01T10:30:59;93875.75;;;24.35;46.27
40384;BME280;26097;42.366;23.818;2022-08-01T10:34:00;93874.53;;;24.31;45.99
40384;BME280;26097;42.366;23.818;2022-08-01T10:37:02;93877.44;;;24.03;45.77
40384;BME280;26097;42.366;23.818;2022-08-01T10:40:03;93872.38;;;24.87;45.63
40384;BME280;26097;42.366;23.818;2022-08-01T10:43:05;93873.88;;;24.63;45.45
40384;BME280;26097;42.366;23.818;2022-08-01T10:46:07;93866.38;;;24.26;45.70
40384;BME280;26097;42.366;23.818;2022-08-01T10:49:14;93879.19;;;24.56;45.99
40384;BME280;26097;42.366;23.818;2022-08-01T10:52:18;93864.16;;;25.41;45.34
40384;BME280;26097;42.366;23.818;2022-08-01T10:55:19;93852.00;;;25.52;44.19
40384;BME280;26097;42.366;23.818;2022-08-01T10:58:28;93848.25;;;26.10;44.66
40384;BME280;26097;42.366;23.818;2022-08-01T11:01:37;93849.78;;;25.74;44.11
40384;BME280;26097;42.366;23.818;2022-08-01T11:04:48;93853.28;;;26.00;44.18
40384;BME280;26097;42.366;23.818;2022-08-01T11:07:53;93854.13;;;26.26;43.25
40384;BME280;26097;42.366;23.818;2022-08-01T11:11:00;93867.06;;;25.72;43.45
40384;BME280;26097;42.366;23.818;2022-08-01T11:14:03;93851.09;;;26.60;43.92
40384;BME280;26097;42.366;23.818;2022-08-01T11:17:35;93843.34;;;26.07;43.72
40384;BME280;26097;42.366;23.818;2022-08-01T11:20:36;93839.59;;;25.90;44.17
40384;BME280;26097;42.366;23.818;2022-08-01T11:23:48;93852.34;;;26.20;41.99
40384;BME280;26097;42.366;23.818;2022-08-01T11:33:10;93830.06;;;26.01;43.20
40384;BME280;26097;42.366;23.818;2022-08-01T11:39:13;93824.78;;;26.19;43.77
40384;BME280;26097;42.366;23.818;2022-08-01T11:42:18;93832.78;;;26.63;43.29
40384;BME280;26097;42.366;23.818;2022-08-01T11:45:19;93815.94;;;26.63;41.85
40384;BME280;26097;42.366;23.818;2022-08-01T11:48:22;93817.94;;;27.17;42.39
40384;BME280;26097;42.366;23.818;2022-08-01T11:51:22;93824.69;;;27.07;41.10
40384;BME280;26097;42.366;23.818;2022-08-01T11:54:31;93817.47;;;26.89;41.50
40384;BME280;26097;42.366;23.818;2022-08-01T11:57:32;93821.94;;;26.96;41.55
40384;BME280;26097;42.366;23.818;2022-08-01T12:00:37;93815.69;;;27.32;40.88
40384;BME280;26097;42.366;23.818;2022-08-01T12:03:38;93817.00;;;27.11;40.30
40384;BME280;26097;42.366;23.818;2022-08-01T12:06:38;93816.03;;;27.55;39.63
40384;BME280;26097;42.366;23.818;2022-08-01T12:09:39;93811.25;;;26.96;42.08
40384;BME280;26097;42.366;23.818;2022-08-01T12:15:44;93802.06;;;27.53;41.22
40384;BME280;26097;42.366;23.818;2022-08-01T12:18:45;93794.06;;;27.76;40.12
40384;BME280;26097;42.366;23.818;2022-08-01T12:25:12;93798.28;;;27.42;38.26
40384;BME280;26097;42.366;23.818;2022-08-01T12:28:13;93799.06;;;27.73;39.81
40384;BME280;26097;42.366;23.818;2022-08-01T12:31:14;93803.94;;;27.64;38.75
40384;BME280;26097;42.366;23.818;2022-08-01T12:34:28;93808.06;;;28.02;39.47
40384;BME280;26097;42.366;23.818;2022-08-01T12:37:28;93809.41;;;27.69;38.54
40384;BME280;26097;42.366;23.818;2022-08-01T12:40:31;93798.56;;;27.64;38.12
40384;BME280;26097;42.366;23.818;2022-08-01T12:43:32;93795.13;;;27.75;37.55
40384;BME280;26097;42.366;23.818;2022-08-01T12:46:34;93808.13;;;27.72;38.41
40384;BME280;26097;42.366;23.818;2022-08-01T12:49:35;93792.47;;;27.45;37.35
40384;BME280;26097;42.366;23.818;2022-08-01T12:52:37;93788.91;;;27.63;37.16
40384;BME280;26097;42.366;23.818;2022-08-01T12:55:48;93804.28;;;27.68;36.05
40384;BME280;26097;42.366;23.818;2022-08-01T12:58:49;93799.25;;;27.59;38.42
40384;BME280;26097;42.366;23.818;2022-08-01T13:01:54;93792.91;;;27.96;37.68
40384;BME280;26097;42.366;23.818;2022-08-01T13:04:55;93790.31;;;26.18;39.23
40384;BME280;26097;42.366;23.818;2022-08-01T13:07:55;93795.81;;;27.40;39.53
40384;BME280;26097;42.366;23.818;2022-08-01T13:11:10;93791.94;;;27.55;37.69
40384;BME280;26097;42.366;23.818;2022-08-01T13:14:27;93788.03;;;28.41;37.47
40384;BME280;26097;42.366;23.818;2022-08-01T13:17:34;93784.06;;;28.55;37.16
40384;BME280;26097;42.366;23.818;2022-08-01T13:20:40;93787.72;;;28.78;36.99
40384;BME280;26097;42.366;23.818;2022-08-01T13:23:41;93790.88;;;28.75;37.30
40384;BME280;26097;42.366;23.818;2022-08-01T13:27:01;93785.38;;;28.93;37.34
40384;BME280;26097;42.366;23.818;2022-08-01T13:30:23;93793.59;;;27.68;38.29
40384;BME280;26097;42.366;23.818;2022-08-01T13:33:26;93793.66;;;26.88;39.33
40384;BME280;26097;42.366;23.818;2022-08-01T13:36:27;93796.69;;;26.73;39.49
40384;BME280;26097;42.366;23.818;2022-08-01T13:39:29;93785.56;;;27.79;39.06
40384;BME280;26097;42.366;23.818;2022-08-01T13:42:45;93797.59;;;28.36;37.58
40384;BME280;26097;42.366;23.818;2022-08-01T13:45:46;93786.91;;;26.85;38.97
40384;BME280;26097;42.366;23.818;2022-08-01T13:48:46;93794.47;;;26.88;39.48
40384;BME280;26097;42.366;23.818;2022-08-01T13:51:47;93778.00;;;27.64;38.29
40384;BME280;26097;42.366;23.818;2022-08-01T13:54:50;93785.25;;;27.45;37.35
40384;BME280;26097;42.366;23.818;2022-08-01T13:57:50;93795.59;;;27.11;37.71
40384;BME280;26097;42.366;23.818;2022-08-01T14:00:51;93787.56;;;27.72;37.73
40384;BME280;26097;42.366;23.818;2022-08-01T14:03:51;93781.16;;;27.97;38.09
40384;BME280;26097;42.366;23.818;2022-08-01T14:06:52;93783.84;;;28.21;37.67
40384;BME280;26097;42.366;23.818;2022-08-01T14:09:53;93781.16;;;27.97;36.96
40384;BME280;26097;42.366;23.818;2022-08-01T14:12:55;93794.47;;;28.16;37.14
40384;BME280;26097;42.366;23.818;2022-08-01T14:15:56;93792.81;;;28.03;37.46
40384;BME280;26097;42.366;23.818;2022-08-01T14:18:56;93792.22;;;27.04;39.48
40384;BME280;26097;42.366;23.818;2022-08-01T14:21:57;93793.72;;;27.42;38.83
40384;BME280;26097;42.366;23.818;2022-08-01T14:24:57;93793.72;;;27.85;37.72
40384;BME280;26097;42.366;23.818;2022-08-01T14:27:59;93786.97;;;28.54;36.80
40384;BME280;26097;42.366;23.818;2022-08-01T14:30:59;93792.19;;;27.65;37.02
40384;BME280;26097;42.366;23.818;2022-08-01T14:34:00;93798.00;;;27.62;38.37
40384;BME280;26097;42.366;23.818;2022-08-01T14:37:01;93799.91;;;27.97;38.10
40384;BME280;26097;42.366;23.818;2022-08-01T14:40:02;93796.91;;;28.17;35.19
40384;BME280;26097;42.366;23.818;2022-08-01T14:43:07;93794.88;;;27.89;36.25
40384;BME280;26097;42.366;23.818;2022-08-01T14:46:08;93803.03;;;28.54;36.73
40384;BME280;26097;42.366;23.818;2022-08-01T14:49:09;93788.16;;;28.34;35.36
40384;BME280;26097;42.366;23.818;2022-08-01T14:52:10;93803.19;;;28.23;36.12
40384;BME280;26097;42.366;23.818;2022-08-01T14:55:11;93800.28;;;28.25;36.34
40384;BME280;26097;42.366;23.818;2022-08-01T14:58:12;93802.69;;;27.78;36.10
40384;BME280;26097;42.366;23.818;2022-08-01T15:01:12;93803.84;;;28.06;35.53
40384;BME280;26097;42.366;23.818;2022-08-01T15:04:13;93804.44;;;27.85;37.36
40384;BME280;26097;42.366;23.818;2022-08-01T15:07:14;93802.25;;;28.29;37.75
40384;BME280;26097;42.366;23.818;2022-08-01T15:10:14;93812.25;;;28.46;36.14
40384;BME280;26097;42.366;23.818;2022-08-01T15:13:16;93810.50;;;28.51;36.71
40384;BME280;26097;42.366;23.818;2022-08-01T15:16:16;93816.47;;;28.18;36.93
40384;BME280;26097;42.366;23.818;2022-08-01T15:19:17;93820.28;;;27.86;36.29
40384;BME280;26097;42.366;23.818;2022-08-01T15:22:18;93811.69;;;28.20;37.38
40384;BME280;26097;42.366;23.818;2022-08-01T15:25:19;93814.38;;;28.20;37.35
40384;BME280;26097;42.366;23.818;2022-08-01T15:28:20;93814.47;;;28.49;37.64
40384;BME280;26097;42.366;23.818;2022-08-01T15:31:20;93812.03;;;28.12;36.25
40384;BME280;26097;42.366;23.818;2022-08-01T15:34:21;93817.81;;;27.85;36.52
40384;BME280;26097;42.366;23.818;2022-08-01T15:37:23;93808.50;;;27.75;37.36
40384;BME280;26097;42.366;23.818;2022-08-01T15:40:23;93815.06;;;28.27;38.42
40384;BME280;26097;42.366;23.818;2022-08-01T15:43:24;93814.63;;;28.30;37.72
40384;BME280;26097;42.366;23.818;2022-08-01T15:46:25;93818.88;;;27.96;37.84
40384;BME280;26097;42.366;23.818;2022-08-01T15:49:27;93818.38;;;27.75;37.91
40384;BME280;26097;42.366;23.818;2022-08-01T15:52:27;93816.53;;;27.63;38.37
40384;BME280;26097;42.366;23.818;2022-08-01T15:55:28;93820.56;;;27.66;39.12
40384;BME280;26097;42.366;23.818;2022-08-01T15:58:28;93817.31;;;27.33;39.03
40384;BME280;26097;42.366;23.818;2022-08-01T16:01:29;93817.41;;;27.27;39.99
40384;BME280;26097;42.366;23.818;2022-08-01T16:04:29;93815.66;;;27.20;40.43
40384;BME280;26097;42.366;23.818;2022-08-01T16:07:29;93816.31;;;26.85;39.77
40384;BME280;26097;42.366;23.818;2022-08-01T16:10:30;93819.34;;;26.70;41.01
40384;BME280;26097;42.366;23.818;2022-08-01T16:13:30;93821.94;;;26.58;40.93
40384;BME280;26097;42.366;23.818;2022-08-01T16:16:31;93828.06;;;26.21;40.28
40384;BME280;26097;42.366;23.818;2022-08-01T16:19:31;93827.09;;;25.90;40.85